Time;durP1;ratioP1;P1;durP2;ratioP2;P2;SDS_P1;SDS_P2;PMS_P1;PMS_P2;Temp;Humidity;BMP_temperature;BMP_pressure;BME280_temperature;BME280_humidity;BME280_pressure;Samples;Min_cycle;Max_cycle;Signal;HPM_P1;HPM_P2
2022/05/06 00:01:45;;;;;;;29.60;12.63;;;13.40;74.70;;;9.49;91.23;95972.31;5034714;28;20104;-59
2022/05/06 00:04:11;;;;;;;26.92;11.57;;;13.40;74.70;;;9.53;91.26;95975.25;5018173;28;20053;-59
2022/05/06 00:06:38;;;;;;;32.75;11.90;;;13.40;74.70;;;9.50;91.30;95969.41;5034610;28;20140;-59
2022/05/06 00:09:05;;;;;;;32.70;12.50;;;13.40;74.70;;;9.53;91.30;95969.94;5028372;28;20026;-59
2022/05/06 00:11:33;;;;;;;34.88;13.38;;;13.50;74.90;;;9.48;91.38;95966.19;5014876;28;20022;-59
2022/05/06 00:14:02;;;;;;;36.28;12.98;;;13.50;74.90;;;9.52;91.21;95977.13;5014745;28;20033;-59
2022/05/06 00:16:40;;;;;;;36.67;13.93;;;13.40;74.90;;;9.49;91.29;95970.47;5028632;28;20036;-59
2022/05/06 00:19:06;;;;;;;47.75;15.55;;;13.40;74.80;;;9.55;91.52;95965.19;5034904;28;20029;-59
2022/05/06 00:21:32;;;;;;;40.55;14.65;;;13.50;74.90;;;9.54;91.31;95969.72;5035674;28;20022;-59
2022/05/06 00:24:04;;;;;;;43.88;15.43;;;13.40;74.70;;;9.52;91.34;95966.50;5034309;28;20061;-58
2022/05/06 00:26:30;;;;;;;41.55;14.90;;;13.50;75.00;;;9.53;91.35;95959.31;5034302;28;20057;-59
2022/05/06 00:29:02;;;;;;;49.42;15.13;;;13.50;74.80;;;9.57;91.40;95969.22;5034304;28;20061;-59
2022/05/06 00:31:34;;;;;;;47.65;15.20;;;13.50;74.90;;;9.57;91.28;95965.75;5035431;28;20049;-57
2022/05/06 00:34:00;;;;;;;45.30;15.03;;;13.60;74.80;;;9.56;91.51;95966.78;5035224;28;20021;-58
2022/05/06 00:36:32;;;;;;;32.85;13.48;;;13.50;74.70;;;9.56;91.02;95964.13;5035360;28;20033;-57
2022/05/06 00:38:58;;;;;;;37.95;14.20;;;13.50;74.80;;;9.50;91.24;95956.13;5017630;28;20099;-58
2022/05/06 00:41:36;;;;;;;41.28;15.00;;;13.50;74.70;;;9.52;91.25;95960.38;5033966;28;20116;-59
2022/05/06 00:44:09;;;;;;;40.15;14.18;;;13.50;74.70;;;9.52;91.37;95958.50;5034001;28;20045;-59
2022/05/06 00:46:37;;;;;;;33.80;13.35;;;13.50;74.70;;;9.57;91.45;95963.91;5018513;28;20544;-59
2022/05/06 00:49:11;;;;;;;42.53;14.35;;;13.50;74.80;;;9.58;91.23;95949.53;5033941;28;20079;-58
2022/05/06 00:51:39;;;;;;;33.40;13.65;;;13.50;74.90;;;9.60;91.27;95960.75;5017852;28;20021;-58
2022/05/06 00:54:06;;;;;;;39.88;14.48;;;13.50;74.80;;;9.56;91.36;95940.19;5033540;28;20452;-56
2022/05/06 00:56:32;;;;;;;36.80;14.60;;;13.60;74.90;;;9.60;91.21;95955.41;5033867;28;20388;-57
2022/05/06 00:59:17;;;;;;;42.92;15.20;;;13.60;74.90;;;9.57;91.23;95952.47;5017222;28;20037;-57
2022/05/06 01:01:46;;;;;;;43.83;14.77;;;13.50;74.90;;;9.55;91.19;95950.03;5033592;28;20392;-57
2022/05/06 01:04:14;;;;;;;40.70;14.15;;;13.50;74.80;;;9.60;91.41;95950.09;5032726;28;20408;-56
2022/05/06 01:06:39;;;;;;;30.10;12.68;;;13.50;74.80;;;9.59;91.31;95945.84;5033295;28;20052;-59
2022/05/06 01:09:15;;;;;;;23.33;10.57;;;13.50;74.90;;;9.56;90.96;95949.00;5021907;28;20106;-58
2022/05/06 01:11:41;;;;;;;29.10;11.98;;;13.60;75.00;;;9.57;91.14;95947.94;5013692;28;20045;-59
2022/05/06 01:14:13;;;;;;;29.58;12.65;;;13.50;75.20;;;9.57;91.05;95942.63;5015317;28;20022;-58
2022/05/06 01:16:39;;;;;;;28.67;12.52;;;13.60;75.00;;;9.55;91.10;95946.56;5017875;28;20041;-59
2022/05/06 01:19:09;;;;;;;39.30;13.85;;;13.50;74.90;;;9.55;91.08;95941.25;5013565;28;20026;-57
2022/05/06 01:21:42;;;;;;;37.03;14.00;;;13.50;74.90;;;9.58;90.94;95944.22;4997317;28;20040;-59
2022/05/06 01:24:08;;;;;;;38.78;13.75;;;13.60;74.90;;;9.59;90.81;95942.34;5014568;28;20555;-58
2022/05/06 01:26:52;;;;;;;32.95;13.05;;;13.60;74.90;;;9.55;90.95;95938.59;5031606;28;20033;-57
2022/05/06 01:29:20;;;;;;;37.88;13.93;;;13.60;74.90;;;9.55;91.23;95934.06;5034468;28;20025;-59
2022/05/06 01:31:53;;;;;;;30.10;13.02;;;13.60;74.80;;;9.60;91.29;95936.81;5033126;28;20391;-59
2022/05/06 01:34:19;;;;;;;;;;;13.60;75.00;;;9.56;91.03;95934.88;5017077;28;20041;-58
2022/05/06 01:36:53;;;;;;;34.65;12.93;;;13.50;74.60;;;9.58;90.96;95932.78;5033056;28;19913;-60
2022/05/06 01:39:25;;;;;;;42.10;13.95;;;13.60;74.70;;;9.56;91.00;95934.88;5033058;28;20450;-60
2022/05/06 01:41:55;;;;;;;32.75;13.20;;;13.60;74.60;;;9.61;90.86;95941.06;5017442;28;20099;-60
2022/05/06 01:44:24;;;;;;;30.10;12.73;;;13.60;74.70;;;9.61;90.96;95943.72;5032791;28;20108;-58
2022/05/06 01:46:57;;;;;;;30.88;12.57;;;13.60;74.70;;;9.61;90.93;95932.28;5033168;28;20029;-58
2022/05/06 01:49:30;;;;;;;28.48;11.95;;;13.60;74.70;;;9.62;91.05;95934.72;5032859;28;20032;-59
2022/05/06 01:52:00;;;;;;;30.90;12.05;;;13.60;74.80;;;9.60;90.88;95939.47;5032765;28;20033;-58
2022/05/06 01:54:26;;;;;;;35.17;12.68;;;13.60;74.80;;;9.62;91.03;95937.38;5032495;28;20501;-59
2022/05/06 01:56:52;;;;;;;35.65;12.40;;;13.60;74.80;;;9.62;90.84;95934.72;5033783;28;20033;-59
2022/05/06 01:59:18;;;;;;;33.30;12.43;;;13.60;74.80;;;9.63;90.88;95933.66;5033733;28;20456;-58
2022/05/06 02:01:47;;;;;;;30.02;12.30;;;13.60;74.80;;;9.64;90.97;95932.59;5033765;28;20083;-60
2022/05/06 02:07:04;;;;;;;30.20;13.13;;;13.60;74.80;;;9.62;90.77;95932.03;5053419;28;20446;-52
2022/05/06 02:09:36;;;;;;;35.58;12.23;;;13.60;74.80;;;9.66;90.64;95943.00;5043554;28;20113;-54
2022/05/06 02:12:02;;;;;;;31.33;12.05;;;13.60;74.80;;;9.64;90.77;95935.25;5033307;28;20071;-53
2022/05/06 02:14:30;;;;;;;31.92;12.38;;;13.60;74.80;;;9.62;90.63;95934.72;5035555;28;20590;-54
2022/05/06 02:16:59;;;;;;;28.63;11.80;;;13.60;74.80;;;9.63;90.83;95931.00;5031868;28;20109;-51
2022/05/06 02:19:25;;;;;;;35.35;12.60;;;13.60;74.80;;;9.63;90.77;95931.00;5033378;28;20427;-56
2022/05/06 02:21:54;;;;;;;38.28;12.68;;;13.60;74.70;;;9.64;90.84;95934.44;5033251;28;20025;-52
2022/05/06 02:24:22;;;;;;;30.88;12.18;;;13.60;74.80;;;9.64;90.70;95926.47;5033334;28;20039;-56
2022/05/06 02:26:49;;;;;;;41.47;12.57;;;13.60;74.80;;;9.62;90.69;95917.91;5015432;28;20439;-53
2022/05/06 02:29:14;;;;;;;35.78;12.18;;;13.60;74.70;;;9.62;90.80;95923.25;5033119;28;20030;-55
2022/05/06 02:34:27;;;;;;;37.63;13.05;;;13.60;74.70;;;9.59;90.84;95927.22;5031844;28;20560;-52
2022/05/06 02:36:57;;;;;;;29.80;11.57;;;13.60;74.70;;;9.57;90.99;95933.84;5031742;28;20112;-54
2022/05/06 02:39:32;;;;;;;28.27;11.35;;;13.60;74.70;;;9.61;90.99;95934.94;5031619;28;20431;-53
2022/05/06 02:42:08;;;;;;;23.40;10.32;;;13.70;74.80;;;9.58;90.76;95932.78;5031569;28;20060;-55
2022/05/06 02:44:36;;;;;;;33.72;11.98;;;13.60;74.80;;;9.57;90.67;95925.88;5031666;28;20033;-52
2022/05/06 02:47:02;;;;;;;32.95;10.65;;;13.60;74.70;;;9.57;90.50;95920.53;5032901;28;20026;-53
2022/05/06 02:49:31;;;;;;;30.85;11.57;;;13.60;74.70;;;9.49;90.60;95919.94;5032740;28;20035;-55
2022/05/06 02:51:57;;;;;;;26.50;10.15;;;13.60;74.60;;;9.50;90.70;95924.19;5031597;28;20045;-54
2022/05/06 02:54:23;;;;;;;32.20;10.00;;;13.60;74.70;;;9.49;90.61;95922.59;5032433;28;20043;-54
2022/05/06 02:56:49;;;;;;;27.38;10.98;;;13.60;74.60;;;9.50;90.50;95924.19;5032746;28;20025;-57
2022/05/06 02:59:22;;;;;;;28.83;11.50;;;13.60;74.60;;;9.50;90.55;95923.41;5032611;28;20053;-56
2022/05/06 03:01:50;;;;;;;25.13;10.93;;;13.60;74.70;;;9.49;90.75;95913.78;5047946;28;20032;-53
2022/05/06 03:04:16;;;;;;;33.22;12.10;;;13.60;74.70;;;9.47;90.83;95918.59;5032068;28;20524;-53
2022/05/06 03:06:44;;;;;;;32.25;11.57;;;13.50;74.60;;;9.45;90.62;95915.34;5033951;28;20036;-56
2022/05/06 03:09:10;;;;;;;34.05;11.98;;;13.50;74.70;;;9.45;90.73;95918.81;5033578;28;20365;-58
2022/05/06 03:11:36;;;;;;;39.40;12.85;;;13.50;74.70;;;9.46;90.77;95915.13;5033389;28;20037;-56
2022/05/06 03:14:02;;;;;;;29.42;12.40;;;13.50;74.70;;;9.47;90.82;95921.25;5031110;28;20087;-57
2022/05/06 03:16:28;;;;;;;35.88;11.82;;;13.50;74.70;;;9.52;90.87;95923.13;5028487;28;20041;-56
2022/05/06 03:18:53;;;;;;;32.63;11.93;;;13.50;74.70;;;9.48;90.88;95904.22;5034438;28;20719;-55
2022/05/06 03:21:19;;;;;;;31.48;11.80;;;13.50;74.70;;;9.52;90.98;95915.16;5018063;28;20024;-57
2022/05/06 03:23:53;;;;;;;36.13;11.90;;;13.50;74.80;;;9.49;90.94;95914.63;5052148;28;20033;-58
2022/05/06 03:26:25;;;;;;;33.92;11.55;;;13.60;74.90;;;9.50;90.85;95916.22;5035167;28;20044;-54
2022/05/06 03:28:53;;;;;;;35.65;12.43;;;13.60;74.90;;;9.47;91.11;95918.59;5051652;28;20028;-56
2022/05/06 03:31:19;;;;;;;30.00;11.40;;;13.60;74.80;;;9.47;91.09;95914.06;5034497;28;20029;-56
2022/05/06 03:33:45;;;;;;;31.45;12.02;;;13.50;74.70;;;9.47;91.02;95913.25;5034290;28;20387;-56
2022/05/06 03:36:11;;;;;;;23.20;10.70;;;13.50;74.80;;;9.45;91.12;95912.69;5034232;28;20036;-56
2022/05/06 03:38:43;;;;;;;27.13;10.65;;;13.60;74.80;;;9.48;91.16;95907.69;5034269;28;20037;-56
2022/05/06 03:41:14;;;;;;;30.67;11.35;;;13.50;74.90;;;9.48;91.04;95906.88;5051970;28;20496;-52
2022/05/06 03:43:43;;;;;;;33.35;11.85;;;13.60;74.90;;;9.46;91.29;95901.81;5051880;28;20036;-51
2022/05/06 03:46:09;;;;;;;33.80;11.40;;;13.60;74.90;;;9.51;91.04;95909.03;5034145;28;20029;-53
2022/05/06 03:48:35;;;;;;;37.97;12.23;;;13.60;74.90;;;9.53;91.28;95906.94;5051796;28;20039;-54
2022/05/06 03:51:23;;;;;;;35.67;11.38;;;13.60;74.90;;;9.51;91.13;95909.03;5017676;28;20044;-51
2022/05/06 03:54:11;;;;;;;40.83;11.68;;;13.60;74.90;;;9.56;91.04;95916.25;5019910;28;20396;-55
2022/05/06 03:56:36;;;;;;;35.70;11.30;;;13.60;74.90;;;9.55;91.13;95915.47;5036577;28;20073;-51
2022/05/06 03:59:09;;;;;;;40.35;11.50;;;13.60;74.90;;;9.55;91.18;95910.13;5033946;28;20613;-51
2022/05/06 04:01:36;;;;;;;38.33;11.15;;;13.60;75.00;;;9.55;91.23;95912.81;5034155;28;20116;-53
2022/05/06 04:04:02;;;;;;;33.42;10.60;;;13.60;75.00;;;9.58;91.16;95908.84;5013929;28;20129;-53
2022/05/06 04:06:30;;;;;;;32.20;10.77;;;13.50;75.00;;;9.59;91.30;95913.09;5031914;28;20108;-51
2022/05/06 04:08:55;;;;;;;48.30;11.85;;;13.60;75.10;;;9.58;91.43;95906.97;5026272;28;20087;-52
2022/05/06 04:11:21;;;;;;;31.40;10.85;;;13.60;75.00;;;9.61;91.36;95911.81;5011275;28;20045;-53
2022/05/06 04:13:48;;;;;;;38.60;11.30;;;13.60;75.10;;;9.58;91.48;95916.81;5011952;28;20388;-55
2022/05/06 04:16:14;;;;;;;28.23;10.13;;;13.60;75.10;;;9.61;91.68;95921.66;5016189;28;20030;-54
2022/05/06 04:18:48;;;;;;;32.22;10.73;;;13.60;75.20;;;9.61;91.41;95911.00;5010780;28;20030;-53
2022/05/06 04:23:58;;;;;;;31.80;10.73;;;13.60;76.00;;;9.66;91.31;95921.72;5012016;28;20075;-52
2022/05/06 04:26:29;;;;;;;31.55;10.38;;;13.70;75.20;;;9.60;91.22;95912.06;5010947;28;20029;-55
2022/05/06 04:28:58;;;;;;;35.08;10.90;;;13.70;75.30;;;9.64;91.43;95921.94;5011967;28;20041;-55
2022/05/06 04:31:24;;;;;;;59.90;11.73;;;13.70;75.30;;;9.64;91.39;95918.47;5010728;28;20516;-52
2022/05/06 04:33:49;;;;;;;36.17;10.52;;;13.70;75.20;;;9.63;91.36;95917.69;5012072;28;20112;-55
2022/05/06 04:36:15;;;;;;;32.35;11.43;;;13.70;75.20;;;9.64;91.07;95924.59;5010424;28;20034;-57
2022/05/06 04:38:47;;;;;;;36.60;11.68;;;13.70;75.20;;;9.61;91.18;95919.78;5011978;28;20030;-53
2022/05/06 04:41:13;;;;;;;50.88;12.02;;;13.70;75.20;;;9.66;91.50;95933.16;5014366;28;20033;-53
2022/05/06 04:43:42;;;;;;;38.97;12.80;;;13.70;75.20;;;9.66;91.40;95929.69;5015374;28;20088;-55
2022/05/06 04:46:08;;;;;;;56.90;17.65;;;13.70;75.20;;;9.61;91.66;95932.28;5013867;28;20026;-55
2022/05/06 04:48:33;;;;;;;57.72;15.38;;;13.70;75.20;;;9.63;91.83;95936.31;5014235;28;20485;-52
2022/05/06 04:51:11;;;;;;;40.58;13.23;;;13.70;75.20;;;9.65;91.51;95933.38;5030853;28;20037;-53
2022/05/06 04:53:40;;;;;;;45.83;14.50;;;13.70;75.40;;;9.71;91.44;95935.03;5015077;28;20440;-56
2022/05/06 04:56:08;;;;;;;37.03;12.55;;;13.70;76.10;;;9.76;91.54;95939.63;5015002;28;20030;-55
2022/05/06 04:58:34;;;;;;;36.50;12.95;;;13.70;75.40;;;9.75;91.38;95933.50;5015118;28;20472;-52
2022/05/06 05:01:00;;;;;;;32.72;12.50;;;13.80;75.40;;;9.79;91.33;95939.13;5013753;28;20113;-51
2022/05/06 05:03:29;;;;;;;29.17;12.45;;;13.80;75.40;;;9.81;91.27;95937.84;5016421;28;20121;-55
2022/05/06 05:06:09;;;;;;;34.33;12.43;;;13.80;75.30;;;9.87;91.25;95941.31;5034752;28;20030;-53
2022/05/06 05:08:38;;;;;;;46.63;14.95;;;13.90;75.40;;;9.83;91.11;95934.91;5047966;28;20037;-52
2022/05/06 05:11:04;;;;;;;61.45;21.30;;;13.90;75.20;;;9.75;91.36;95936.16;5033514;28;20481;-54
2022/05/06 05:13:42;;;;;;;47.28;16.30;;;13.90;75.20;;;9.82;91.26;95943.94;5016687;28;20067;-55
2022/05/06 05:16:11;;;;;;;88.38;27.98;;;13.90;75.30;;;9.79;91.33;95931.16;5040637;28;20092;-54
2022/05/06 05:18:37;;;;;;;88.00;29.58;;;13.90;75.20;;;9.82;91.51;95934.09;5033187;28;20029;-55
2022/05/06 05:21:03;;;;;;;83.03;28.95;;;14.00;75.40;;;9.85;91.67;95932.81;5040289;28;20391;-53
2022/05/06 05:23:35;;;;;;;89.90;30.45;;;14.00;75.40;;;9.84;91.45;95932.00;5035365;28;20025;-54
2022/05/06 05:26:03;;;;;;;79.47;30.13;;;14.00;75.50;;;9.83;91.45;95930.38;5020053;28;20029;-52
2022/05/06 05:28:29;;;;;;;86.70;32.08;;;14.00;75.50;;;9.85;91.32;95938.94;5019947;28;20413;-52
2022/05/06 05:30:58;;;;;;;87.97;31.08;;;14.00;75.50;;;9.90;91.31;95941.66;5036332;28;20037;-55
2022/05/06 05:33:28;;;;;;;78.85;31.02;;;14.00;75.50;;;9.88;91.19;95932.31;5034613;28;20059;-52
2022/05/06 05:36:03;;;;;;;77.55;29.58;;;14.00;75.60;;;9.88;91.16;95943.75;5050105;28;20131;-53
2022/05/06 05:38:29;;;;;;;75.90;30.23;;;14.00;75.60;;;9.88;91.09;95934.97;5039655;28;20025;-53
2022/05/06 05:40:55;;;;;;;87.85;33.35;;;14.00;75.50;;;9.88;91.10;95935.75;5011880;28;20036;-52
2022/05/06 05:48:58;;;;;;;79.03;31.45;;;14.00;75.60;;;9.93;91.29;95935.00;5033317;28;20040;-53
2022/05/06 05:51:24;;;;;;;77.68;30.45;;;14.10;75.50;;;9.91;91.06;95937.94;5052571;28;20033;-52
2022/05/06 05:53:50;;;;;;;67.43;30.45;;;14.10;75.50;;;9.94;91.17;95941.94;5016973;28;20052;-56
2022/05/06 05:56:15;;;;;;;62.85;29.27;;;14.10;75.40;;;9.92;91.00;95934.19;5011034;28;20026;-57
2022/05/06 05:58:42;;;;;;;66.95;30.95;;;14.20;75.40;;;9.97;90.99;95944.09;5015917;28;20116;-54
2022/05/06 06:01:08;;;;;;;74.75;31.75;;;14.20;75.30;;;9.97;90.71;95938.78;5035729;28;20021;-53
2022/05/06 06:03:34;;;;;;;67.82;30.90;;;14.30;75.20;;;10.01;90.59;95941.75;5036611;28;20550;-52
2022/05/06 06:05:59;;;;;;;65.78;30.30;;;14.30;75.20;;;10.06;90.59;95944.44;5033030;28;20029;-52
2022/05/06 06:08:25;;;;;;;68.88;29.83;;;14.30;75.40;;;10.11;90.73;95941.81;5046285;28;20467;-51
2022/05/06 06:10:52;;;;;;;65.25;29.95;;;14.40;75.10;;;10.09;90.56;95942.09;5046160;28;20029;-53
2022/05/06 06:13:17;;;;;;;57.92;27.42;;;14.50;75.10;;;10.07;90.58;95946.84;5031174;28;20029;-53
2022/05/06 06:15:46;;;;;;;61.42;27.25;;;14.50;74.90;;;10.13;90.33;95942.38;5051580;28;20272;-53
2022/05/06 06:18:12;;;;;;;57.80;27.40;;;14.50;74.70;;;10.21;90.14;95941.91;5015212;28;20025;-53
2022/05/06 06:20:38;;;;;;;57.58;27.67;;;14.60;74.70;;;10.31;90.05;95939.38;5049612;28;20066;-53
2022/05/06 06:23:04;;;;;;;65.22;29.13;;;14.70;74.70;;;10.36;89.92;95951.94;5046683;28;20024;-56
2022/05/06 06:25:30;;;;;;;63.45;28.92;;;14.70;74.60;;;10.41;89.63;95954.66;5023942;28;20027;-53
2022/05/06 06:28:05;;;;;;;56.80;28.63;;;14.80;74.50;;;10.46;89.45;95949.34;5030492;28;20364;-51
2022/05/06 06:30:33;;;;;;;50.17;26.83;;;14.90;74.30;;;10.50;89.32;95946.97;5047996;28;20052;-51
2022/05/06 06:32:59;;;;;;;52.55;27.27;;;15.10;74.10;;;10.60;89.27;95947.88;5051846;28;20123;-54
2022/05/06 06:35:25;;;;;;;51.90;25.55;;;15.20;74.00;;;10.63;88.72;95942.03;5052800;28;20108;-53
2022/05/06 06:37:51;;;;;;;50.88;26.23;;;15.40;73.60;;;10.71;88.46;95938.06;5034052;28;20423;-55
2022/05/06 06:40:17;;;;;;;46.88;25.63;;;15.50;73.20;;;10.87;88.20;95945.13;5051742;28;20025;-52
2022/05/06 06:42:44;;;;;;;46.50;25.13;;;15.70;73.00;;;10.99;87.89;95946.78;5034860;28;20507;-51
2022/05/06 06:45:10;;;;;;;39.85;23.58;;;15.80;72.90;;;10.95;86.57;95941.16;5052670;28;20056;-51
2022/05/06 06:47:43;;;;;;;37.65;23.42;;;15.90;72.60;;;10.92;86.53;95941.69;5052711;28;20395;-52
2022/05/06 06:50:09;;;;;;;37.25;23.58;;;15.90;72.00;;;10.94;86.47;95949.44;5052813;28;20472;-51
2022/05/06 06:52:35;;;;;;;35.03;22.38;;;15.90;71.80;;;10.96;86.32;95948.09;5052560;28;20044;-53
2022/05/06 06:55:08;;;;;;;39.08;22.70;;;15.90;71.70;;;11.03;85.95;95950.53;5034659;28;20049;-56
2022/05/06 06:57:38;;;;;;;35.30;22.67;;;16.00;71.70;;;11.10;85.88;95946.59;5052456;28;20114;-54
2022/05/06 07:00:13;;;;;;;36.60;22.02;;;16.00;71.60;;;11.13;85.81;95947.94;5034653;28;20447;-55
2022/05/06 07:02:45;;;;;;;33.75;20.92;;;16.10;71.40;;;11.18;85.41;95947.94;5051771;28;20103;-55
2022/05/06 07:05:14;;;;;;;31.02;20.50;;;16.10;71.20;;;11.18;85.28;95952.47;5034777;28;20076;-53
2022/05/06 07:13:20;;;;;;;26.05;18.65;;;16.30;70.50;;;11.25;84.41;95955.69;5032375;28;20123;-51
2022/05/06 07:15:46;;;;;;;28.20;19.25;;;16.30;70.50;;;11.19;84.42;95960.22;5047619;28;20116;-55
2022/05/06 07:18:12;;;;;;;30.02;21.30;;;16.10;70.30;;;11.21;84.87;95967.97;5033872;28;20487;-51
2022/05/06 07:20:42;;;;;;;32.20;21.13;;;16.00;70.60;;;11.15;85.38;95967.13;5052228;28;20039;-51
2022/05/06 07:23:09;;;;;;;31.33;21.25;;;15.90;70.70;;;11.24;85.55;95968.25;5017806;28;20104;-57
2022/05/06 07:25:37;;;;;;;35.55;23.23;;;15.70;70.90;;;11.21;85.48;95966.09;5034591;28;20047;-52
2022/05/06 07:28:04;;;;;;;36.22;22.90;;;15.70;71.20;;;11.19;85.35;95970.91;5034408;28;20086;-53
2022/05/06 07:30:30;;;;;;;37.58;23.13;;;15.70;71.30;;;11.19;85.79;95965.56;5034523;28;20028;-56
2022/05/06 07:33:02;;;;;;;35.05;23.10;;;15.60;71.30;;;11.16;86.21;95962.63;5052172;28;20090;-52
2022/05/06 07:35:34;;;;;;;39.20;23.23;;;15.60;71.40;;;11.19;86.07;95964.75;5001262;28;20032;-56
2022/05/06 07:38:02;;;;;;;36.58;22.90;;;15.60;71.60;;;11.24;85.91;95970.09;5034312;28;20029;-51
2022/05/06 07:40:28;;;;;;;39.58;23.92;;;15.60;71.70;;;11.19;85.63;95970.06;5052010;28;20025;-52
2022/05/06 07:42:55;;;;;;;35.60;22.80;;;15.60;71.70;;;11.13;86.01;95965.78;5051968;28;20365;-52
2022/05/06 07:45:20;;;;;;;38.05;23.02;;;15.50;71.70;;;11.06;86.30;95971.34;5051917;28;20025;-53
2022/05/06 07:47:50;;;;;;;41.58;25.15;;;15.50;71.60;;;11.09;86.65;95973.47;5051921;28;20103;-56
2022/05/06 07:50:16;;;;;;;38.50;24.70;;;15.50;71.80;;;11.09;86.68;95968.16;5051922;28;20021;-54
2022/05/06 07:52:41;;;;;;;39.63;24.80;;;15.40;71.80;;;11.11;86.19;95968.72;5017737;28;20364;-55
2022/05/06 07:55:19;;;;;;;38.13;23.48;;;15.40;72.00;;;11.11;86.27;95971.38;5017452;28;20159;-53
2022/05/06 07:57:46;;;;;;;38.17;25.35;;;15.40;72.10;;;11.04;86.78;95970.81;5033926;28;20041;-56
2022/05/06 08:00:12;;;;;;;41.45;25.85;;;15.30;72.20;;;10.97;86.66;95972.88;5034131;28;20060;-55
2022/05/06 08:05:27;;;;;;;34.25;22.80;;;15.30;72.30;;;10.90;86.99;95973.09;5036978;28;20056;-51
2022/05/06 08:07:54;;;;;;;35.97;23.92;;;15.30;72.30;;;10.91;87.31;95980.06;5034785;28;20058;-54
2022/05/06 08:10:20;;;;;;;37.28;23.35;;;15.30;72.30;;;10.85;87.10;95979.22;5030664;28;20053;-52
2022/05/06 08:12:50;;;;;;;33.70;22.42;;;15.40;72.20;;;10.84;87.73;95976.78;5030794;28;20438;-53
2022/05/06 08:15:16;;;;;;;35.40;23.10;;;15.30;72.10;;;10.89;87.89;95982.16;5040461;28;20401;-54
2022/05/06 08:17:42;;;;;;;32.58;22.30;;;15.30;72.20;;;10.94;87.75;95976.09;5034544;28;20080;-52
2022/05/06 08:20:09;;;;;;;32.75;21.17;;;15.30;72.30;;;10.91;87.61;95985.38;5035888;28;20026;-52
2022/05/06 08:22:44;;;;;;;31.55;20.13;;;15.30;72.30;;;10.82;87.24;95979.72;5034408;28;20029;-50
2022/05/06 08:25:19;;;;;;;33.85;22.63;;;15.20;72.40;;;10.79;87.33;95977.56;5034262;28;20033;-53
2022/05/06 08:27:48;;;;;;;37.63;22.05;;;15.20;72.50;;;10.85;87.49;95981.88;5033993;28;20045;-54
2022/05/06 08:30:14;;;;;;;35.60;22.27;;;15.10;72.40;;;10.84;87.54;95985.63;5050824;28;20064;-54
2022/05/06 08:32:40;;;;;;;38.58;23.10;;;15.10;72.50;;;10.79;87.25;95980.22;5035281;28;20026;-51
2022/05/06 08:35:09;;;;;;;40.55;24.27;;;15.10;72.60;;;10.72;87.52;95973.50;5034047;28;20040;-51
2022/05/06 08:37:48;;;;;;;40.47;24.40;;;15.00;72.60;;;10.70;87.59;95981.75;5035116;28;20112;-56
2022/05/06 08:40:31;;;;;;;39.95;23.98;;;14.90;72.60;;;10.69;87.58;95979.38;5051194;28;20156;-55
2022/05/06 08:42:58;;;;;;;49.00;26.98;;;14.90;72.80;;;10.74;87.48;95982.06;5036050;28;20444;-56
2022/05/06 08:50:58;;;;;;;48.47;27.10;;;14.90;73.00;;;10.71;87.85;95995.88;5034148;28;20458;-53
2022/05/06 08:53:37;;;;;;;49.45;28.35;;;14.80;73.10;;;10.69;88.01;95985.50;5017478;28;20033;-52
2022/05/06 08:56:04;;;;;;;48.22;28.02;;;14.90;73.20;;;10.75;87.95;95987.16;5034438;28;20493;-51
2022/05/06 08:58:34;;;;;;;50.60;28.75;;;14.90;73.20;;;10.72;87.75;95985.00;5017335;28;20029;-54
2022/05/06 09:01:12;;;;;;;50.92;28.48;;;14.90;73.20;;;10.79;87.79;95995.44;5033683;28;20028;-52
2022/05/06 09:03:38;;;;;;;49.40;27.95;;;14.90;73.30;;;10.82;87.70;95997.59;5033836;28;20035;-52
2022/05/06 09:06:05;;;;;;;47.20;27.83;;;14.90;73.20;;;10.81;87.75;95988.78;5032123;28;20040;-53
2022/05/06 09:08:51;;;;;;;49.53;27.42;;;15.00;73.40;;;10.83;87.79;95999.19;5035787;28;20029;-54
2022/05/06 09:14:07;;;;;;;49.03;27.73;;;15.10;73.20;;;10.96;87.89;96001.41;5039611;28;20569;-56
2022/05/06 09:16:51;;;;;;;45.55;27.65;;;15.20;73.20;;;11.06;87.87;96006.00;5004751;28;20029;-54
2022/05/06 09:19:25;;;;;;;45.08;26.23;;;15.40;73.20;;;11.06;87.34;96006.81;5035170;28;20029;-51
2022/05/06 09:22:13;;;;;;;45.90;26.20;;;15.50;73.10;;;11.08;87.50;96002.00;5034040;28;20037;-55
2022/05/06 09:24:40;;;;;;;42.03;24.38;;;15.60;73.00;;;11.01;87.94;96009.44;5033608;28;20033;-53
2022/05/06 09:27:07;;;;;;;37.08;23.17;;;15.60;72.70;;;11.11;88.01;96014.03;5019973;28;20091;-51
2022/05/06 09:29:47;;;;;;;34.88;22.25;;;15.70;72.60;;;11.13;87.15;96011.13;5054111;28;20031;-54
2022/05/06 09:32:43;;;;;;;32.67;22.23;;;15.80;72.70;;;11.13;87.78;96016.47;5019385;28;20116;-53
2022/05/06 09:35:12;;;;;;;37.58;24.77;;;15.80;72.40;;;11.10;87.62;96013.22;5050019;28;20045;-51
2022/05/06 09:37:43;;;;;;;36.53;23.90;;;15.80;72.10;;;11.12;87.67;96010.28;5036759;28;20223;-51
2022/05/06 09:40:30;;;;;;;38.10;24.20;;;15.80;72.10;;;11.13;87.62;96011.13;5035241;28;20040;-54
2022/05/06 09:42:58;;;;;;;37.22;24.50;;;15.90;72.10;;;11.11;87.78;96011.38;5016738;28;20021;-52
2022/05/06 09:45:44;;;;;;;37.55;24.25;;;15.90;71.90;;;11.06;87.51;96017.47;5000802;28;20476;-53
2022/05/06 09:48:14;;;;;;;36.58;23.67;;;15.80;71.80;;;11.06;87.76;96012.16;5052028;28;20112;-54
2022/05/06 09:50:48;;;;;;;37.10;25.10;;;15.80;71.80;;;11.09;88.15;96016.13;5036020;28;20024;-53
2022/05/06 09:53:17;;;;;;;36.35;23.98;;;15.70;72.00;;;11.08;87.90;96014.53;5026290;28;20514;-51
2022/05/06 09:55:45;;;;;;;35.75;23.25;;;15.70;72.10;;;11.08;87.46;96009.22;5047301;28;20029;-58
2022/05/06 09:58:14;;;;;;;38.92;24.73;;;15.70;72.20;;;10.98;87.91;96020.63;5035312;28;20376;-54
2022/05/06 10:00:43;;;;;;;33.25;23.83;;;15.60;72.10;;;10.93;87.62;96011.78;5025427;28;20030;-54
2022/05/06 10:03:12;;;;;;;36.47;23.38;;;15.50;72.20;;;10.93;88.13;96019.75;5027608;28;20017;-52
2022/05/06 10:05:39;;;;;;;39.95;27.90;;;15.50;72.30;;;10.82;87.66;96022.38;5034116;28;20415;-52
2022/05/06 10:08:20;;;;;;;43.10;26.02;;;15.50;72.30;;;10.81;88.30;96028.75;5028754;28;20116;-54
2022/05/06 10:10:55;;;;;;;43.83;29.75;;;15.40;72.30;;;10.84;88.43;96027.41;5051440;28;20032;-52
2022/05/06 10:13:23;;;;;;;43.35;29.75;;;15.40;72.30;;;10.81;88.47;96025.28;5034987;28;20036;-52
2022/05/06 10:15:53;;;;;;;44.20;28.92;;;15.40;72.40;;;10.83;88.67;96025.81;5031969;28;20232;-51
2022/05/06 10:18:40;;;;;;;46.50;31.00;;;15.40;72.40;;;10.93;88.77;96033.09;5032352;28;20025;-54
2022/05/06 10:21:14;;;;;;;44.25;30.63;;;15.70;72.50;;;10.93;87.79;96017.91;5048778;28;20036;-54
2022/05/06 10:23:53;;;;;;;45.55;30.45;;;15.80;72.00;;;11.03;88.48;96025.16;5031853;28;20021;-55
2022/05/06 10:26:38;;;;;;;46.40;30.80;;;15.80;71.90;;;11.07;87.75;96029.75;4993908;28;20087;-53
2022/05/06 10:34:55;;;;;;;45.83;30.52;;;16.00;71.70;;;11.23;87.46;96030.63;5048765;28;20051;-52
2022/05/06 10:37:43;;;;;;;49.38;32.65;;;16.00;71.60;;;11.28;87.02;96035.19;5012453;28;20040;-53
2022/05/06 10:40:30;;;;;;;42.33;29.63;;;16.10;71.60;;;11.26;86.86;96029.31;5042576;28;20025;-52
2022/05/06 10:42:56;;;;;;;46.78;31.10;;;16.20;71.40;;;11.27;87.22;96029.06;5051271;28;20361;-52
2022/05/06 10:45:23;;;;;;;43.90;30.35;;;16.10;71.20;;;11.38;87.37;96032.59;5017553;28;20025;-50
2022/05/06 10:47:50;;;;;;;50.97;32.20;;;16.20;71.30;;;11.46;87.32;96029.44;5017062;28;20044;-52
2022/05/06 10:50:23;;;;;;;45.88;30.70;;;16.30;71.20;;;11.49;86.79;96034.25;5029311;28;20076;-55
2022/05/06 10:52:50;;;;;;;48.85;32.53;;;16.50;70.90;;;11.62;86.77;96032.97;5052453;28;20021;-55
2022/05/06 10:55:21;;;;;;;48.20;31.98;;;16.70;70.60;;;11.72;86.92;96029.53;5052461;28;20035;-50
2022/05/06 10:57:58;;;;;;;46.83;31.38;;;16.90;70.40;;;11.62;86.26;96026.84;5035088;28;20029;-53